Terminal Aerodrome Forecast
Issued by NWS Atlanta, GA

Home | Current Version | Previous Version | Text Only | Print | Product List | Glossary On
Versions: 1 2 3 4 5 6 7 8 9 10 11 12 13 14 15
090
FTUS42 KFFC 262333
TAFMCN
TAF
KMCN 262333Z 2700/2724 14010KT P6SM SKC
     FM270100 12005KT P6SM SCT250
     FM271500 09007KT P6SM FEW045
     FM271900 08010KT P6SM FEW060=

USA.gov is the U.S. government's official web portal to all federal, state and local government web resources and services.